sensor_id;sensor_type;location;lat;lon;timestamp;P1;durP1;ratioP1;P2;durP2;ratioP2
5125;SDS011;63008;53.112;8.896;2022-11-15T00:01:15;25.00;;;18.53;;
5125;SDS011;63008;53.112;8.896;2022-11-15T00:03:19;31.63;;;21.63;;
5125;SDS011;63008;53.112;8.896;2022-11-15T00:05:21;26.67;;;18.40;;
5125;SDS011;63008;53.112;8.896;2022-11-15T00:07:22;30.50;;;21.47;;
5125;SDS011;63008;53.112;8.896;2022-11-15T00:09:23;30.03;;;20.97;;
5125;SDS011;63008;53.112;8.896;2022-11-15T00:11:24;25.83;;;19.40;;
5125;SDS011;63008;53.112;8.896;2022-11-15T00:13:26;30.90;;;22.57;;
5125;SDS011;63008;53.112;8.896;2022-11-15T00:15:27;34.50;;;21.00;;
5125;SDS011;63008;53.112;8.896;2022-11-15T00:17:28;31.67;;;20.00;;
5125;SDS011;63008;53.112;8.896;2022-11-15T00:19:30;30.70;;;22.10;;
5125;SDS011;63008;53.112;8.896;2022-11-15T00:21:31;28.03;;;19.90;;
5125;SDS011;63008;53.112;8.896;2022-11-15T00:23:32;25.17;;;18.70;;
5125;SDS011;63008;53.112;8.896;2022-11-15T00:25:34;25.10;;;19.27;;
5125;SDS011;63008;53.112;8.896;2022-11-15T00:27:35;27.73;;;20.40;;
5125;SDS011;63008;53.112;8.896;2022-11-15T00:29:36;29.27;;;19.47;;
5125;SDS011;63008;53.112;8.896;2022-11-15T00:31:39;28.07;;;19.13;;
5125;SDS011;63008;53.112;8.896;2022-11-15T00:33:42;28.83;;;19.73;;
5125;SDS011;63008;53.112;8.896;2022-11-15T00:35:43;28.10;;;19.03;;
5125;SDS011;63008;53.112;8.896;2022-11-15T00:37:44;27.13;;;19.27;;
5125;SDS011;63008;53.112;8.896;2022-11-15T00:39:45;30.10;;;19.90;;
5125;SDS011;63008;53.112;8.896;2022-11-15T00:41:46;28.13;;;20.40;;
5125;SDS011;63008;53.112;8.896;2022-11-15T00:43:47;26.47;;;21.23;;
5125;SDS011;63008;53.112;8.896;2022-11-15T00:45:48;31.63;;;19.70;;
5125;SDS011;63008;53.112;8.896;2022-11-15T00:47:49;26.80;;;19.00;;
5125;SDS011;63008;53.112;8.896;2022-11-15T00:49:50;27.53;;;19.00;;
5125;SDS011;63008;53.112;8.896;2022-11-15T00:51:51;30.77;;;19.07;;
5125;SDS011;63008;53.112;8.896;2022-11-15T00:53:52;26.17;;;19.60;;
5125;SDS011;63008;53.112;8.896;2022-11-15T00:55:53;25.17;;;18.37;;
5125;SDS011;63008;53.112;8.896;2022-11-15T00:57:54;22.17;;;17.20;;
5125;SDS011;63008;53.112;8.896;2022-11-15T00:59:55;28.77;;;20.13;;
5125;SDS011;63008;53.112;8.896;2022-11-15T01:01:56;24.50;;;18.43;;
5125;SDS011;63008;53.112;8.896;2022-11-15T01:03:57;26.77;;;19.43;;
5125;SDS011;63008;53.112;8.896;2022-11-15T01:05:59;28.10;;;19.33;;
5125;SDS011;63008;53.112;8.896;2022-11-15T01:08:00;26.30;;;17.57;;
5125;SDS011;63008;53.112;8.896;2022-11-15T01:10:02;31.37;;;18.63;;
5125;SDS011;63008;53.112;8.896;2022-11-15T01:12:04;27.43;;;18.97;;
5125;SDS011;63008;53.112;8.896;2022-11-15T01:14:05;23.77;;;17.77;;
5125;SDS011;63008;53.112;8.896;2022-11-15T01:16:10;26.33;;;18.47;;
5125;SDS011;63008;53.112;8.896;2022-11-15T01:18:13;25.30;;;18.17;;
5125;SDS011;63008;53.112;8.896;2022-11-15T01:20:14;26.13;;;17.57;;
5125;SDS011;63008;53.112;8.896;2022-11-15T01:22:16;26.10;;;19.20;;
5125;SDS011;63008;53.112;8.896;2022-11-15T01:24:17;26.70;;;18.27;;
5125;SDS011;63008;53.112;8.896;2022-11-15T01:26:18;25.80;;;18.40;;
5125;SDS011;63008;53.112;8.896;2022-11-15T01:28:19;24.03;;;17.13;;
5125;SDS011;63008;53.112;8.896;2022-11-15T01:30:20;32.00;;;19.00;;
5125;SDS011;63008;53.112;8.896;2022-11-15T01:32:23;25.07;;;17.63;;
5125;SDS011;63008;53.112;8.896;2022-11-15T01:34:24;25.30;;;18.07;;
5125;SDS011;63008;53.112;8.896;2022-11-15T01:36:25;24.43;;;17.87;;
5125;SDS011;63008;53.112;8.896;2022-11-15T01:38:26;24.37;;;17.63;;
5125;SDS011;63008;53.112;8.896;2022-11-15T01:40:27;27.27;;;17.67;;
5125;SDS011;63008;53.112;8.896;2022-11-15T01:42:28;29.03;;;19.20;;
5125;SDS011;63008;53.112;8.896;2022-11-15T01:44:43;28.83;;;19.93;;
5125;SDS011;63008;53.112;8.896;2022-11-15T01:46:48;29.90;;;20.03;;
5125;SDS011;63008;53.112;8.896;2022-11-15T01:48:49;25.77;;;17.73;;
5125;SDS011;63008;53.112;8.896;2022-11-15T01:50:53;26.90;;;18.80;;
5125;SDS011;63008;53.112;8.896;2022-11-15T01:52:54;31.40;;;20.63;;
5125;SDS011;63008;53.112;8.896;2022-11-15T01:54:56;30.37;;;19.13;;
5125;SDS011;63008;53.112;8.896;2022-11-15T01:57:09;25.97;;;17.37;;
5125;SDS011;63008;53.112;8.896;2022-11-15T01:59:12;31.40;;;21.87;;
5125;SDS011;63008;53.112;8.896;2022-11-15T02:01:13;28.90;;;20.40;;
5125;SDS011;63008;53.112;8.896;2022-11-15T02:03:15;28.50;;;20.30;;
5125;SDS011;63008;53.112;8.896;2022-11-15T02:05:16;23.60;;;17.77;;
5125;SDS011;63008;53.112;8.896;2022-11-15T02:07:18;30.00;;;19.03;;
5125;SDS011;63008;53.112;8.896;2022-11-15T02:09:22;27.00;;;18.63;;
5125;SDS011;63008;53.112;8.896;2022-11-15T02:11:23;27.67;;;20.10;;
5125;SDS011;63008;53.112;8.896;2022-11-15T02:13:24;26.80;;;17.97;;
5125;SDS011;63008;53.112;8.896;2022-11-15T02:15:26;25.30;;;18.43;;
5125;SDS011;63008;53.112;8.896;2022-11-15T02:31:55;24.03;;;15.97;;
5125;SDS011;63008;53.112;8.896;2022-11-15T02:34:15;27.30;;;18.00;;
5125;SDS011;63008;53.112;8.896;2022-11-15T02:36:31;25.83;;;17.40;;
5125;SDS011;63008;53.112;8.896;2022-11-15T02:38:46;28.67;;;18.73;;
5125;SDS011;63008;53.112;8.896;2022-11-15T02:41:02;29.53;;;18.40;;
5125;SDS011;63008;53.112;8.896;2022-11-15T02:43:08;21.63;;;16.03;;
5125;SDS011;63008;53.112;8.896;2022-11-15T02:45:30;29.93;;;17.10;;
5125;SDS011;63008;53.112;8.896;2022-11-15T02:47:38;21.83;;;16.70;;
5125;SDS011;63008;53.112;8.896;2022-11-15T02:49:45;23.33;;;16.63;;
5125;SDS011;63008;53.112;8.896;2022-11-15T02:51:49;27.73;;;18.03;;
5125;SDS011;63008;53.112;8.896;2022-11-15T02:53:51;22.90;;;15.87;;
5125;SDS011;63008;53.112;8.896;2022-11-15T02:55:52;19.73;;;15.33;;
5125;SDS011;63008;53.112;8.896;2022-11-15T02:57:59;19.90;;;16.23;;
5125;SDS011;63008;53.112;8.896;2022-11-15T03:00:18;31.33;;;19.30;;
5125;SDS011;63008;53.112;8.896;2022-11-15T03:02:36;20.60;;;16.73;;
5125;SDS011;63008;53.112;8.896;2022-11-15T03:09:52;25.80;;;18.20;;
5125;SDS011;63008;53.112;8.896;2022-11-15T03:14:36;24.47;;;17.10;;
5125;SDS011;63008;53.112;8.896;2022-11-15T03:16:51;24.07;;;16.53;;
5125;SDS011;63008;53.112;8.896;2022-11-15T03:19:14;26.37;;;18.17;;
5125;SDS011;63008;53.112;8.896;2022-11-15T03:21:23;25.23;;;17.33;;
5125;SDS011;63008;53.112;8.896;2022-11-15T03:23:25;26.37;;;17.83;;
5125;SDS011;63008;53.112;8.896;2022-11-15T03:25:29;21.83;;;17.20;;
5125;SDS011;63008;53.112;8.896;2022-11-15T03:27:33;18.93;;;15.70;;
5125;SDS011;63008;53.112;8.896;2022-11-15T03:29:45;24.50;;;17.23;;
5125;SDS011;63008;53.112;8.896;2022-11-15T03:31:51;24.07;;;15.87;;
5125;SDS011;63008;53.112;8.896;2022-11-15T03:33:57;25.10;;;16.13;;
5125;SDS011;63008;53.112;8.896;2022-11-15T03:36:02;21.33;;;15.93;;
5125;SDS011;63008;53.112;8.896;2022-11-15T03:40:16;21.97;;;16.17;;
5125;SDS011;63008;53.112;8.896;2022-11-15T03:44:32;26.57;;;17.40;;
5125;SDS011;63008;53.112;8.896;2022-11-15T03:46:42;21.70;;;16.33;;
5125;SDS011;63008;53.112;8.896;2022-11-15T03:48:52;22.87;;;16.67;;
5125;SDS011;63008;53.112;8.896;2022-11-15T03:50:57;21.87;;;16.57;;
5125;SDS011;63008;53.112;8.896;2022-11-15T03:52:58;23.40;;;17.20;;
5125;SDS011;63008;53.112;8.896;2022-11-15T03:54:59;26.40;;;19.47;;
5125;SDS011;63008;53.112;8.896;2022-11-15T03:57:03;26.03;;;16.50;;
5125;SDS011;63008;53.112;8.896;2022-11-15T03:59:04;22.10;;;17.27;;
5125;SDS011;63008;53.112;8.896;2022-11-15T04:01:05;22.43;;;16.87;;
5125;SDS011;63008;53.112;8.896;2022-11-15T04:03:06;20.80;;;16.13;;
5125;SDS011;63008;53.112;8.896;2022-11-15T04:05:08;18.90;;;16.07;;
5125;SDS011;63008;53.112;8.896;2022-11-15T04:07:09;25.80;;;16.23;;
5125;SDS011;63008;53.112;8.896;2022-11-15T04:09:10;21.33;;;16.23;;
5125;SDS011;63008;53.112;8.896;2022-11-15T04:11:11;23.77;;;16.00;;
5125;SDS011;63008;53.112;8.896;2022-11-15T04:13:12;24.37;;;16.53;;
5125;SDS011;63008;53.112;8.896;2022-11-15T04:15:14;26.30;;;17.50;;
5125;SDS011;63008;53.112;8.896;2022-11-15T04:17:19;25.77;;;15.60;;
5125;SDS011;63008;53.112;8.896;2022-11-15T04:19:20;23.40;;;16.63;;
5125;SDS011;63008;53.112;8.896;2022-11-15T04:21:39;19.47;;;15.80;;
5125;SDS011;63008;53.112;8.896;2022-11-15T04:23:59;26.03;;;16.30;;
5125;SDS011;63008;53.112;8.896;2022-11-15T04:26:16;21.57;;;16.57;;
5125;SDS011;63008;53.112;8.896;2022-11-15T04:28:19;20.87;;;16.80;;
5125;SDS011;63008;53.112;8.896;2022-11-15T04:30:20;26.40;;;18.27;;
5125;SDS011;63008;53.112;8.896;2022-11-15T04:32:21;21.70;;;15.53;;
5125;SDS011;63008;53.112;8.896;2022-11-15T04:34:22;20.23;;;15.53;;
5125;SDS011;63008;53.112;8.896;2022-11-15T04:36:23;21.30;;;15.90;;
5125;SDS011;63008;53.112;8.896;2022-11-15T04:38:42;22.67;;;16.67;;
5125;SDS011;63008;53.112;8.896;2022-11-15T04:40:43;23.00;;;15.77;;
5125;SDS011;63008;53.112;8.896;2022-11-15T04:42:44;17.30;;;13.50;;
5125;SDS011;63008;53.112;8.896;2022-11-15T04:44:45;21.60;;;15.27;;
5125;SDS011;63008;53.112;8.896;2022-11-15T04:46:46;22.63;;;15.70;;
5125;SDS011;63008;53.112;8.896;2022-11-15T04:48:47;21.30;;;15.23;;
5125;SDS011;63008;53.112;8.896;2022-11-15T04:50:48;25.70;;;16.13;;
5125;SDS011;63008;53.112;8.896;2022-11-15T04:52:50;19.57;;;16.00;;
5125;SDS011;63008;53.112;8.896;2022-11-15T04:54:53;19.43;;;16.10;;
5125;SDS011;63008;53.112;8.896;2022-11-15T04:56:54;22.83;;;14.90;;
5125;SDS011;63008;53.112;8.896;2022-11-15T04:58:55;18.30;;;14.43;;
5125;SDS011;63008;53.112;8.896;2022-11-15T05:00:56;19.63;;;14.60;;
5125;SDS011;63008;53.112;8.896;2022-11-15T05:02:57;21.50;;;15.07;;
5125;SDS011;63008;53.112;8.896;2022-11-15T05:05:16;18.20;;;14.60;;
5125;SDS011;63008;53.112;8.896;2022-11-15T05:07:17;17.30;;;13.60;;
5125;SDS011;63008;53.112;8.896;2022-11-15T05:09:19;17.27;;;12.87;;
5125;SDS011;63008;53.112;8.896;2022-11-15T05:11:20;17.73;;;13.00;;
5125;SDS011;63008;53.112;8.896;2022-11-15T05:13:21;18.50;;;12.50;;
5125;SDS011;63008;53.112;8.896;2022-11-15T05:15:22;15.40;;;12.00;;
5125;SDS011;63008;53.112;8.896;2022-11-15T05:17:23;17.20;;;11.67;;
5125;SDS011;63008;53.112;8.896;2022-11-15T05:19:24;13.40;;;11.57;;
5125;SDS011;63008;53.112;8.896;2022-11-15T05:21:25;15.63;;;13.27;;
5125;SDS011;63008;53.112;8.896;2022-11-15T05:23:26;20.10;;;13.50;;
5125;SDS011;63008;53.112;8.896;2022-11-15T05:25:27;17.33;;;13.27;;
5125;SDS011;63008;53.112;8.896;2022-11-15T05:27:28;18.27;;;12.67;;
5125;SDS011;63008;53.112;8.896;2022-11-15T05:29:29;16.50;;;12.63;;
5125;SDS011;63008;53.112;8.896;2022-11-15T05:31:30;16.50;;;12.47;;
5125;SDS011;63008;53.112;8.896;2022-11-15T05:33:32;15.70;;;12.63;;
5125;SDS011;63008;53.112;8.896;2022-11-15T05:35:35;14.67;;;12.60;;
5125;SDS011;63008;53.112;8.896;2022-11-15T05:37:40;15.73;;;13.80;;
5125;SDS011;63008;53.112;8.896;2022-11-15T05:39:42;16.53;;;13.60;;
5125;SDS011;63008;53.112;8.896;2022-11-15T05:41:47;14.77;;;12.73;;
5125;SDS011;63008;53.112;8.896;2022-11-15T05:43:52;18.40;;;13.80;;
5125;SDS011;63008;53.112;8.896;2022-11-15T05:45:54;20.10;;;14.63;;
5125;SDS011;63008;53.112;8.896;2022-11-15T05:47:55;18.50;;;13.00;;
5125;SDS011;63008;53.112;8.896;2022-11-15T05:49:59;19.10;;;13.43;;
5125;SDS011;63008;53.112;8.896;2022-11-15T05:52:00;20.30;;;14.70;;
5125;SDS011;63008;53.112;8.896;2022-11-15T05:54:05;17.50;;;13.33;;
5125;SDS011;63008;53.112;8.896;2022-11-15T05:56:06;15.70;;;12.03;;
5125;SDS011;63008;53.112;8.896;2022-11-15T05:58:07;20.10;;;13.20;;
5125;SDS011;63008;53.112;8.896;2022-11-15T06:00:08;18.97;;;14.20;;
5125;SDS011;63008;53.112;8.896;2022-11-15T06:02:10;16.07;;;12.50;;
5125;SDS011;63008;53.112;8.896;2022-11-15T06:04:11;16.50;;;13.13;;
5125;SDS011;63008;53.112;8.896;2022-11-15T06:06:12;16.77;;;12.90;;
5125;SDS011;63008;53.112;8.896;2022-11-15T06:08:13;14.70;;;13.10;;
5125;SDS011;63008;53.112;8.896;2022-11-15T06:10:14;17.90;;;13.60;;
5125;SDS011;63008;53.112;8.896;2022-11-15T06:12:15;13.60;;;11.00;;
5125;SDS011;63008;53.112;8.896;2022-11-15T06:14:16;15.43;;;11.93;;
5125;SDS011;63008;53.112;8.896;2022-11-15T06:16:17;17.27;;;10.93;;
5125;SDS011;63008;53.112;8.896;2022-11-15T06:18:18;16.63;;;13.93;;
5125;SDS011;63008;53.112;8.896;2022-11-15T06:20:19;17.50;;;13.50;;
5125;SDS011;63008;53.112;8.896;2022-11-15T06:22:20;17.37;;;12.80;;
5125;SDS011;63008;53.112;8.896;2022-11-15T06:24:21;25.70;;;16.43;;
5125;SDS011;63008;53.112;8.896;2022-11-15T06:26:22;21.80;;;13.77;;
5125;SDS011;63008;53.112;8.896;2022-11-15T06:28:23;19.53;;;13.67;;
5125;SDS011;63008;53.112;8.896;2022-11-15T06:30:25;18.47;;;14.10;;
5125;SDS011;63008;53.112;8.896;2022-11-15T06:32:26;16.20;;;13.40;;
5125;SDS011;63008;53.112;8.896;2022-11-15T06:34:27;16.90;;;13.27;;
5125;SDS011;63008;53.112;8.896;2022-11-15T06:36:28;18.00;;;13.80;;
5125;SDS011;63008;53.112;8.896;2022-11-15T06:38:29;16.57;;;13.47;;
5125;SDS011;63008;53.112;8.896;2022-11-15T06:40:32;18.13;;;12.80;;
5125;SDS011;63008;53.112;8.896;2022-11-15T06:42:34;19.13;;;13.00;;
5125;SDS011;63008;53.112;8.896;2022-11-15T06:44:35;21.47;;;15.73;;
5125;SDS011;63008;53.112;8.896;2022-11-15T06:46:36;16.67;;;12.07;;
5125;SDS011;63008;53.112;8.896;2022-11-15T06:48:37;17.60;;;13.10;;
5125;SDS011;63008;53.112;8.896;2022-11-15T06:50:37;21.30;;;13.83;;
5125;SDS011;63008;53.112;8.896;2022-11-15T06:52:38;19.97;;;14.83;;
5125;SDS011;63008;53.112;8.896;2022-11-15T06:54:39;22.27;;;15.30;;
5125;SDS011;63008;53.112;8.896;2022-11-15T06:56:41;18.60;;;15.80;;
5125;SDS011;63008;53.112;8.896;2022-11-15T06:58:42;20.07;;;15.87;;
5125;SDS011;63008;53.112;8.896;2022-11-15T07:00:43;22.77;;;15.70;;
5125;SDS011;63008;53.112;8.896;2022-11-15T07:02:44;21.40;;;15.60;;
5125;SDS011;63008;53.112;8.896;2022-11-15T07:04:45;19.60;;;14.40;;
5125;SDS011;63008;53.112;8.896;2022-11-15T07:06:46;14.67;;;13.17;;
5125;SDS011;63008;53.112;8.896;2022-11-15T07:08:48;23.33;;;15.83;;
5125;SDS011;63008;53.112;8.896;2022-11-15T07:10:49;19.27;;;13.50;;
5125;SDS011;63008;53.112;8.896;2022-11-15T07:12:51;19.37;;;14.50;;
5125;SDS011;63008;53.112;8.896;2022-11-15T07:14:53;22.33;;;14.00;;
5125;SDS011;63008;53.112;8.896;2022-11-15T07:16:54;18.40;;;13.47;;
5125;SDS011;63008;53.112;8.896;2022-11-15T07:18:55;18.87;;;14.60;;
5125;SDS011;63008;53.112;8.896;2022-11-15T07:20:59;15.90;;;12.10;;
5125;SDS011;63008;53.112;8.896;2022-11-15T07:23:02;14.03;;;12.20;;
5125;SDS011;63008;53.112;8.896;2022-11-15T07:25:05;17.77;;;13.83;;
5125;SDS011;63008;53.112;8.896;2022-11-15T07:27:06;19.87;;;14.03;;
5125;SDS011;63008;53.112;8.896;2022-11-15T07:29:07;16.73;;;13.90;;
5125;SDS011;63008;53.112;8.896;2022-11-15T07:31:08;14.33;;;12.20;;
5125;SDS011;63008;53.112;8.896;2022-11-15T07:33:09;19.07;;;14.33;;
5125;SDS011;63008;53.112;8.896;2022-11-15T07:35:10;16.77;;;13.50;;
5125;SDS011;63008;53.112;8.896;2022-11-15T07:37:12;23.30;;;13.37;;
5125;SDS011;63008;53.112;8.896;2022-11-15T07:39:13;18.73;;;12.60;;
5125;SDS011;63008;53.112;8.896;2022-11-15T07:41:14;20.17;;;14.00;;
5125;SDS011;63008;53.112;8.896;2022-11-15T07:43:15;16.17;;;13.87;;
5125;SDS011;63008;53.112;8.896;2022-11-15T07:45:16;16.10;;;13.37;;
5125;SDS011;63008;53.112;8.896;2022-11-15T07:47:17;16.40;;;13.30;;
5125;SDS011;63008;53.112;8.896;2022-11-15T07:49:18;18.33;;;14.07;;
5125;SDS011;63008;53.112;8.896;2022-11-15T07:51:19;18.77;;;13.27;;
5125;SDS011;63008;53.112;8.896;2022-11-15T07:53:20;20.77;;;14.30;;
5125;SDS011;63008;53.112;8.896;2022-11-15T07:55:22;16.90;;;13.37;;
5125;SDS011;63008;53.112;8.896;2022-11-15T07:57:24;22.97;;;17.37;;
5125;SDS011;63008;53.112;8.896;2022-11-15T07:59:24;14.23;;;12.60;;
5125;SDS011;63008;53.112;8.896;2022-11-15T08:01:27;21.93;;;15.60;;
5125;SDS011;63008;53.112;8.896;2022-11-15T08:03:28;21.90;;;14.60;;
5125;SDS011;63008;53.112;8.896;2022-11-15T08:05:29;18.10;;;14.73;;
5125;SDS011;63008;53.112;8.896;2022-11-15T08:07:30;19.33;;;14.23;;
5125;SDS011;63008;53.112;8.896;2022-11-15T08:09:32;13.93;;;11.83;;
5125;SDS011;63008;53.112;8.896;2022-11-15T08:11:32;13.93;;;10.97;;
5125;SDS011;63008;53.112;8.896;2022-11-15T08:13:33;13.60;;;11.83;;
5125;SDS011;63008;53.112;8.896;2022-11-15T08:15:35;13.80;;;11.10;;
5125;SDS011;63008;53.112;8.896;2022-11-15T08:17:36;13.33;;;11.63;;
5125;SDS011;63008;53.112;8.896;2022-11-15T08:19:37;16.53;;;12.83;;
5125;SDS011;63008;53.112;8.896;2022-11-15T08:21:38;20.30;;;13.83;;
5125;SDS011;63008;53.112;8.896;2022-11-15T08:23:39;18.07;;;12.20;;
5125;SDS011;63008;53.112;8.896;2022-11-15T08:25:40;14.87;;;12.37;;
5125;SDS011;63008;53.112;8.896;2022-11-15T08:27:41;16.33;;;12.50;;
5125;SDS011;63008;53.112;8.896;2022-11-15T08:29:45;18.23;;;12.47;;
5125;SDS011;63008;53.112;8.896;2022-11-15T08:31:47;14.90;;;10.07;;
5125;SDS011;63008;53.112;8.896;2022-11-15T08:33:48;15.87;;;11.13;;
5125;SDS011;63008;53.112;8.896;2022-11-15T08:35:49;14.60;;;10.83;;
5125;SDS011;63008;53.112;8.896;2022-11-15T08:37:52;11.60;;;9.30;;
5125;SDS011;63008;53.112;8.896;2022-11-15T08:39:53;15.53;;;12.30;;
5125;SDS011;63008;53.112;8.896;2022-11-15T08:41:54;13.90;;;10.70;;
5125;SDS011;63008;53.112;8.896;2022-11-15T08:43:55;11.83;;;9.67;;
5125;SDS011;63008;53.112;8.896;2022-11-15T08:45:56;12.00;;;10.43;;
5125;SDS011;63008;53.112;8.896;2022-11-15T08:47:58;13.60;;;9.73;;
5125;SDS011;63008;53.112;8.896;2022-11-15T08:50:02;10.70;;;9.60;;
5125;SDS011;63008;53.112;8.896;2022-11-15T08:52:03;17.67;;;10.93;;
5125;SDS011;63008;53.112;8.896;2022-11-15T08:54:04;14.10;;;10.83;;
5125;SDS011;63008;53.112;8.896;2022-11-15T08:56:08;15.83;;;10.07;;
5125;SDS011;63008;53.112;8.896;2022-11-15T08:58:11;16.73;;;11.33;;
5125;SDS011;63008;53.112;8.896;2022-11-15T09:00:12;15.43;;;9.43;;
5125;SDS011;63008;53.112;8.896;2022-11-15T09:02:14;14.23;;;10.70;;
5125;SDS011;63008;53.112;8.896;2022-11-15T09:04:16;11.20;;;8.90;;
5125;SDS011;63008;53.112;8.896;2022-11-15T09:06:17;11.30;;;9.80;;
5125;SDS011;63008;53.112;8.896;2022-11-15T09:08:18;14.87;;;8.90;;
5125;SDS011;63008;53.112;8.896;2022-11-15T09:10:19;12.10;;;9.77;;
5125;SDS011;63008;53.112;8.896;2022-11-15T09:12:20;14.70;;;10.07;;
5125;SDS011;63008;53.112;8.896;2022-11-15T09:14:21;11.20;;;9.30;;
5125;SDS011;63008;53.112;8.896;2022-11-15T09:16:22;11.23;;;10.00;;
5125;SDS011;63008;53.112;8.896;2022-11-15T09:18:23;13.47;;;10.43;;
5125;SDS011;63008;53.112;8.896;2022-11-15T09:20:24;10.17;;;9.17;;
5125;SDS011;63008;53.112;8.896;2022-11-15T09:22:25;12.27;;;10.97;;
5125;SDS011;63008;53.112;8.896;2022-11-15T09:24:26;11.40;;;9.33;;
5125;SDS011;63008;53.112;8.896;2022-11-15T09:26:27;12.43;;;9.57;;
5125;SDS011;63008;53.112;8.896;2022-11-15T09:28:28;13.07;;;9.07;;
5125;SDS011;63008;53.112;8.896;2022-11-15T09:30:29;12.50;;;9.13;;
5125;SDS011;63008;53.112;8.896;2022-11-15T09:32:30;15.00;;;8.77;;
5125;SDS011;63008;53.112;8.896;2022-11-15T09:34:31;13.63;;;9.13;;
5125;SDS011;63008;53.112;8.896;2022-11-15T09:36:32;9.97;;;8.93;;
5125;SDS011;63008;53.112;8.896;2022-11-15T09:38:33;11.27;;;9.27;;
5125;SDS011;63008;53.112;8.896;2022-11-15T09:40:36;11.13;;;9.20;;
5125;SDS011;63008;53.112;8.896;2022-11-15T09:42:52;12.60;;;8.80;;
5125;SDS011;63008;53.112;8.896;2022-11-15T09:49:57;13.93;;;9.67;;
5125;SDS011;63008;53.112;8.896;2022-11-15T09:52:00;17.50;;;9.00;;
5125;SDS011;63008;53.112;8.896;2022-11-15T09:54:08;10.10;;;8.90;;
5125;SDS011;63008;53.112;8.896;2022-11-15T09:56:16;8.17;;;7.37;;
5125;SDS011;63008;53.112;8.896;2022-11-15T09:58:30;16.07;;;10.67;;
5125;SDS011;63008;53.112;8.896;2022-11-15T10:00:38;9.73;;;8.10;;
5125;SDS011;63008;53.112;8.896;2022-11-15T10:02:58;10.70;;;9.00;;
5125;SDS011;63008;53.112;8.896;2022-11-15T10:05:11;12.10;;;8.67;;
5125;SDS011;63008;53.112;8.896;2022-11-15T10:09:37;14.33;;;7.57;;
5125;SDS011;63008;53.112;8.896;2022-11-15T10:11:43;7.50;;;6.80;;
5125;SDS011;63008;53.112;8.896;2022-11-15T10:13:44;7.73;;;6.93;;
5125;SDS011;63008;53.112;8.896;2022-11-15T10:15:48;8.00;;;7.30;;
5125;SDS011;63008;53.112;8.896;2022-11-15T10:20:20;9.67;;;6.87;;
5125;SDS011;63008;53.112;8.896;2022-11-15T10:22:28;8.87;;;7.90;;
5125;SDS011;63008;53.112;8.896;2022-11-15T10:24:31;8.63;;;6.60;;
5125;SDS011;63008;53.112;8.896;2022-11-15T10:26:37;8.10;;;7.30;;
5125;SDS011;63008;53.112;8.896;2022-11-15T10:28:38;7.23;;;6.57;;
5125;SDS011;63008;53.112;8.896;2022-11-15T10:30:41;8.33;;;7.47;;
5125;SDS011;63008;53.112;8.896;2022-11-15T10:32:44;10.40;;;7.23;;
5125;SDS011;63008;53.112;8.896;2022-11-15T10:34:47;13.23;;;6.90;;
5125;SDS011;63008;53.112;8.896;2022-11-15T10:36:56;9.00;;;6.33;;
5125;SDS011;63008;53.112;8.896;2022-11-15T10:38:59;7.33;;;6.63;;
5125;SDS011;63008;53.112;8.896;2022-11-15T10:41:06;7.83;;;6.30;;
5125;SDS011;63008;53.112;8.896;2022-11-15T10:43:13;10.10;;;6.60;;
5125;SDS011;63008;53.112;8.896;2022-11-15T10:45:29;14.30;;;6.73;;
5125;SDS011;63008;53.112;8.896;2022-11-15T10:47:31;8.70;;;6.93;;
5125;SDS011;63008;53.112;8.896;2022-11-15T10:49:33;10.63;;;7.27;;
5125;SDS011;63008;53.112;8.896;2022-11-15T10:51:35;8.23;;;6.53;;
5125;SDS011;63008;53.112;8.896;2022-11-15T10:53:45;11.47;;;7.70;;
5125;SDS011;63008;53.112;8.896;2022-11-15T10:55:47;10.23;;;6.83;;
5125;SDS011;63008;53.112;8.896;2022-11-15T10:57:51;7.93;;;6.43;;
5125;SDS011;63008;53.112;8.896;2022-11-15T10:59:54;6.23;;;5.60;;
5125;SDS011;63008;53.112;8.896;2022-11-15T11:04:29;5.87;;;5.40;;
5125;SDS011;63008;53.112;8.896;2022-11-15T11:06:56;6.43;;;5.83;;
5125;SDS011;63008;53.112;8.896;2022-11-15T11:09:04;7.70;;;5.60;;
5125;SDS011;63008;53.112;8.896;2022-11-15T11:11:06;18.13;;;10.70;;
5125;SDS011;63008;53.112;8.896;2022-11-15T11:13:20;8.33;;;7.40;;
5125;SDS011;63008;53.112;8.896;2022-11-15T11:15:24;5.33;;;4.83;;
5125;SDS011;63008;53.112;8.896;2022-11-15T11:17:32;5.87;;;4.70;;
5125;SDS011;63008;53.112;8.896;2022-11-15T11:21:49;16.63;;;6.27;;
5125;SDS011;63008;53.112;8.896;2022-11-15T11:23:52;14.80;;;9.53;;
5125;SDS011;63008;53.112;8.896;2022-11-15T11:33:02;6.57;;;5.40;;
5125;SDS011;63008;53.112;8.896;2022-11-15T11:35:14;14.20;;;5.87;;
5125;SDS011;63008;53.112;8.896;2022-11-15T11:37:24;6.10;;;5.60;;
5125;SDS011;63008;53.112;8.896;2022-11-15T11:47:15;5.00;;;4.37;;
5125;SDS011;63008;53.112;8.896;2022-11-15T11:49:26;6.20;;;5.30;;
5125;SDS011;63008;53.112;8.896;2022-11-15T11:51:28;5.93;;;4.50;;
5125;SDS011;63008;53.112;8.896;2022-11-15T11:53:39;5.53;;;4.53;;
5125;SDS011;63008;53.112;8.896;2022-11-15T11:55:45;7.13;;;4.03;;
5125;SDS011;63008;53.112;8.896;2022-11-15T12:00:28;5.37;;;4.87;;
5125;SDS011;63008;53.112;8.896;2022-11-15T12:02:36;4.90;;;4.50;;
5125;SDS011;63008;53.112;8.896;2022-11-15T12:04:42;3.70;;;3.40;;
5125;SDS011;63008;53.112;8.896;2022-11-15T12:06:54;8.17;;;5.40;;
5125;SDS011;63008;53.112;8.896;2022-11-15T12:09:06;5.30;;;3.73;;
5125;SDS011;63008;53.112;8.896;2022-11-15T12:11:29;5.07;;;4.57;;
5125;SDS011;63008;53.112;8.896;2022-11-15T12:13:49;4.47;;;3.90;;
5125;SDS011;63008;53.112;8.896;2022-11-15T12:16:16;4.37;;;4.07;;
5125;SDS011;63008;53.112;8.896;2022-11-15T12:18:22;4.63;;;4.17;;
5125;SDS011;63008;53.112;8.896;2022-11-15T12:20:24;4.50;;;4.10;;
5125;SDS011;63008;53.112;8.896;2022-11-15T12:22:33;6.37;;;5.77;;
5125;SDS011;63008;53.112;8.896;2022-11-15T12:24:43;5.70;;;5.20;;
5125;SDS011;63008;53.112;8.896;2022-11-15T12:26:59;5.80;;;4.03;;
5125;SDS011;63008;53.112;8.896;2022-11-15T12:29:50;4.23;;;3.93;;
5125;SDS011;63008;53.112;8.896;2022-11-15T12:31:50;10.53;;;4.53;;
5125;SDS011;63008;53.112;8.896;2022-11-15T12:33:56;5.53;;;3.90;;
5125;SDS011;63008;53.112;8.896;2022-11-15T12:35:59;7.20;;;3.90;;
5125;SDS011;63008;53.112;8.896;2022-11-15T12:38:03;7.63;;;3.93;;
5125;SDS011;63008;53.112;8.896;2022-11-15T12:40:17;3.57;;;3.37;;
5125;SDS011;63008;53.112;8.896;2022-11-15T12:53:25;4.97;;;3.60;;
5125;SDS011;63008;53.112;8.896;2022-11-15T12:55:31;4.60;;;4.03;;
5125;SDS011;63008;53.112;8.896;2022-11-15T12:57:36;5.90;;;3.47;;
5125;SDS011;63008;53.112;8.896;2022-11-15T12:59:49;3.70;;;3.47;;
5125;SDS011;63008;53.112;8.896;2022-11-15T13:02:15;4.50;;;3.90;;
5125;SDS011;63008;53.112;8.896;2022-11-15T13:04:22;4.90;;;3.90;;
5125;SDS011;63008;53.112;8.896;2022-11-15T13:06:34;8.17;;;3.90;;
5125;SDS011;63008;53.112;8.896;2022-11-15T13:08:49;3.60;;;3.33;;
5125;SDS011;63008;53.112;8.896;2022-11-15T13:10:51;3.00;;;2.80;;
5125;SDS011;63008;53.112;8.896;2022-11-15T13:17:34;7.63;;;3.20;;
5125;SDS011;63008;53.112;8.896;2022-11-15T13:19:35;3.90;;;3.20;;
5125;SDS011;63008;53.112;8.896;2022-11-15T13:21:39;5.47;;;2.93;;
5125;SDS011;63008;53.112;8.896;2022-11-15T13:24:14;3.27;;;2.60;;
5125;SDS011;63008;53.112;8.896;2022-11-15T13:26:17;3.37;;;3.07;;
5125;SDS011;63008;53.112;8.896;2022-11-15T13:30:20;2.77;;;2.57;;
5125;SDS011;63008;53.112;8.896;2022-11-15T13:32:23;6.00;;;3.10;;
5125;SDS011;63008;53.112;8.896;2022-11-15T13:34:31;5.40;;;3.43;;
5125;SDS011;63008;53.112;8.896;2022-11-15T13:36:36;4.97;;;3.33;;
5125;SDS011;63008;53.112;8.896;2022-11-15T13:38:38;7.10;;;2.70;;